sensor_id;sensor_type;location;lat;lon;timestamp;P1;durP1;ratioP1;P2;durP2;ratioP2
20861;SDS011;10591;52.532;13.348;2022-11-04T00:01:01;12.10;;;9.53;;
20861;SDS011;10591;52.532;13.348;2022-11-04T00:03:34;13.32;;;9.65;;
20861;SDS011;10591;52.532;13.348;2022-11-04T00:06:05;14.25;;;8.95;;
20861;SDS011;10591;52.532;13.348;2022-11-04T00:08:36;12.40;;;8.95;;
20861;SDS011;10591;52.532;13.348;2022-11-04T00:11:06;10.55;;;8.70;;
20861;SDS011;10591;52.532;13.348;2022-11-04T00:13:56;13.05;;;8.95;;
20861;SDS011;10591;52.532;13.348;2022-11-04T00:16:26;16.42;;;10.35;;
20861;SDS011;10591;52.532;13.348;2022-11-04T00:19:15;17.65;;;12.33;;
20861;SDS011;10591;52.532;13.348;2022-11-04T00:21:45;10.85;;;8.58;;
20861;SDS011;10591;52.532;13.348;2022-11-04T00:24:34;13.08;;;9.18;;
20861;SDS011;10591;52.532;13.348;2022-11-04T00:27:13;12.15;;;9.65;;
20861;SDS011;10591;52.532;13.348;2022-11-04T00:30:05;15.47;;;9.60;;
20861;SDS011;10591;52.532;13.348;2022-11-04T00:32:37;16.17;;;10.90;;
20861;SDS011;10591;52.532;13.348;2022-11-04T00:35:26;12.88;;;9.55;;
20861;SDS011;10591;52.532;13.348;2022-11-04T00:37:56;13.35;;;11.00;;
20861;SDS011;10591;52.532;13.348;2022-11-04T00:40:26;15.60;;;9.20;;
20861;SDS011;10591;52.532;13.348;2022-11-04T00:42:57;12.75;;;9.85;;
20861;SDS011;10591;52.532;13.348;2022-11-04T00:45:27;13.10;;;9.38;;
20861;SDS011;10591;52.532;13.348;2022-11-04T00:47:58;16.15;;;9.70;;
20861;SDS011;10591;52.532;13.348;2022-11-04T00:50:28;13.30;;;9.57;;
20861;SDS011;10591;52.532;13.348;2022-11-04T00:52:59;11.95;;;9.20;;
20861;SDS011;10591;52.532;13.348;2022-11-04T00:55:30;14.87;;;9.88;;
20861;SDS011;10591;52.532;13.348;2022-11-04T00:58:01;14.85;;;9.63;;
20861;SDS011;10591;52.532;13.348;2022-11-04T01:00:31;13.58;;;9.90;;
20861;SDS011;10591;52.532;13.348;2022-11-04T01:03:02;14.63;;;9.45;;
20861;SDS011;10591;52.532;13.348;2022-11-04T01:05:32;13.68;;;9.60;;
20861;SDS011;10591;52.532;13.348;2022-11-04T01:08:04;16.20;;;9.88;;
20861;SDS011;10591;52.532;13.348;2022-11-04T01:10:35;12.60;;;9.70;;
20861;SDS011;10591;52.532;13.348;2022-11-04T01:13:07;14.23;;;9.45;;
20861;SDS011;10591;52.532;13.348;2022-11-04T01:15:38;14.58;;;9.98;;
20861;SDS011;10591;52.532;13.348;2022-11-04T01:18:09;14.03;;;10.43;;
20861;SDS011;10591;52.532;13.348;2022-11-04T01:20:40;14.55;;;11.22;;
20861;SDS011;10591;52.532;13.348;2022-11-04T01:23:10;15.28;;;9.88;;
20861;SDS011;10591;52.532;13.348;2022-11-04T01:25:40;14.70;;;10.23;;
20861;SDS011;10591;52.532;13.348;2022-11-04T01:28:11;16.73;;;9.88;;
20861;SDS011;10591;52.532;13.348;2022-11-04T01:30:41;15.10;;;10.25;;
20861;SDS011;10591;52.532;13.348;2022-11-04T01:33:12;16.48;;;10.15;;
20861;SDS011;10591;52.532;13.348;2022-11-04T01:35:42;14.67;;;9.80;;
20861;SDS011;10591;52.532;13.348;2022-11-04T01:38:12;13.05;;;9.78;;
20861;SDS011;10591;52.532;13.348;2022-11-04T01:40:43;16.87;;;10.68;;
20861;SDS011;10591;52.532;13.348;2022-11-04T01:43:14;15.78;;;9.65;;
20861;SDS011;10591;52.532;13.348;2022-11-04T01:45:52;13.25;;;10.13;;
20861;SDS011;10591;52.532;13.348;2022-11-04T01:48:27;16.75;;;10.45;;
20861;SDS011;10591;52.532;13.348;2022-11-04T01:50:59;13.17;;;10.37;;
20861;SDS011;10591;52.532;13.348;2022-11-04T01:53:33;12.68;;;10.00;;
20861;SDS011;10591;52.532;13.348;2022-11-04T01:56:07;13.43;;;10.38;;
20861;SDS011;10591;52.532;13.348;2022-11-04T01:58:41;12.82;;;9.85;;
20861;SDS011;10591;52.532;13.348;2022-11-04T02:01:13;13.95;;;10.72;;
20861;SDS011;10591;52.532;13.348;2022-11-04T02:03:52;15.50;;;10.30;;
20861;SDS011;10591;52.532;13.348;2022-11-04T02:06:24;14.07;;;10.38;;
20861;SDS011;10591;52.532;13.348;2022-11-04T02:08:54;14.17;;;9.90;;
20861;SDS011;10591;52.532;13.348;2022-11-04T02:11:25;15.43;;;9.93;;
20861;SDS011;10591;52.532;13.348;2022-11-04T02:14:13;12.65;;;10.38;;
20861;SDS011;10591;52.532;13.348;2022-11-04T02:16:44;12.77;;;10.27;;
20861;SDS011;10591;52.532;13.348;2022-11-04T02:19:36;13.43;;;10.03;;
20861;SDS011;10591;52.532;13.348;2022-11-04T02:30:34;13.68;;;10.08;;
20861;SDS011;10591;52.532;13.348;2022-11-04T02:33:12;15.95;;;11.10;;
20861;SDS011;10591;52.532;13.348;2022-11-04T02:38:33;12.13;;;9.85;;
20861;SDS011;10591;52.532;13.348;2022-11-04T02:41:16;15.90;;;10.63;;
20861;SDS011;10591;52.532;13.348;2022-11-04T02:43:50;15.90;;;10.43;;
20861;SDS011;10591;52.532;13.348;2022-11-04T02:46:24;12.97;;;10.03;;
20861;SDS011;10591;52.532;13.348;2022-11-04T02:49:05;14.13;;;9.98;;
20861;SDS011;10591;52.532;13.348;2022-11-04T02:51:35;15.78;;;11.00;;
20861;SDS011;10591;52.532;13.348;2022-11-04T02:54:10;13.75;;;10.35;;
20861;SDS011;10591;52.532;13.348;2022-11-04T02:56:44;14.87;;;11.33;;
20861;SDS011;10591;52.532;13.348;2022-11-04T02:59:22;13.68;;;10.15;;
20861;SDS011;10591;52.532;13.348;2022-11-04T03:01:58;12.15;;;10.05;;
20861;SDS011;10591;52.532;13.348;2022-11-04T03:04:33;14.70;;;11.10;;
20861;SDS011;10591;52.532;13.348;2022-11-04T03:07:07;13.58;;;10.60;;
20861;SDS011;10591;52.532;13.348;2022-11-04T03:09:41;16.80;;;11.50;;
20861;SDS011;10591;52.532;13.348;2022-11-04T03:12:16;18.10;;;10.95;;
20861;SDS011;10591;52.532;13.348;2022-11-04T03:14:53;14.58;;;9.80;;
20861;SDS011;10591;52.532;13.348;2022-11-04T03:17:33;12.93;;;10.32;;
20861;SDS011;10591;52.532;13.348;2022-11-04T03:20:08;14.45;;;10.38;;
20861;SDS011;10591;52.532;13.348;2022-11-04T03:22:37;17.20;;;10.90;;
20861;SDS011;10591;52.532;13.348;2022-11-04T03:25:08;14.67;;;10.47;;
20861;SDS011;10591;52.532;13.348;2022-11-04T03:27:42;15.47;;;10.53;;
20861;SDS011;10591;52.532;13.348;2022-11-04T03:30:19;14.13;;;10.28;;
20861;SDS011;10591;52.532;13.348;2022-11-04T03:33:00;17.90;;;10.28;;
20861;SDS011;10591;52.532;13.348;2022-11-04T03:35:38;13.90;;;10.08;;
20861;SDS011;10591;52.532;13.348;2022-11-04T03:38:08;16.90;;;11.03;;
20861;SDS011;10591;52.532;13.348;2022-11-04T03:40:39;14.73;;;10.03;;
20861;SDS011;10591;52.532;13.348;2022-11-04T03:43:10;17.00;;;10.80;;
20861;SDS011;10591;52.532;13.348;2022-11-04T03:45:44;12.93;;;9.93;;
20861;SDS011;10591;52.532;13.348;2022-11-04T03:48:14;14.10;;;9.85;;
20861;SDS011;10591;52.532;13.348;2022-11-04T03:50:45;15.68;;;10.03;;
20861;SDS011;10591;52.532;13.348;2022-11-04T03:53:18;16.15;;;10.75;;
20861;SDS011;10591;52.532;13.348;2022-11-04T03:56:04;15.05;;;9.65;;
20861;SDS011;10591;52.532;13.348;2022-11-04T04:01:23;16.37;;;10.23;;
20861;SDS011;10591;52.532;13.348;2022-11-04T04:04:00;14.55;;;10.05;;
20861;SDS011;10591;52.532;13.348;2022-11-04T04:06:33;13.98;;;10.20;;
20861;SDS011;10591;52.532;13.348;2022-11-04T04:09:08;14.63;;;10.18;;
20861;SDS011;10591;52.532;13.348;2022-11-04T04:11:41;14.53;;;10.85;;
20861;SDS011;10591;52.532;13.348;2022-11-04T04:14:31;13.83;;;9.73;;
20861;SDS011;10591;52.532;13.348;2022-11-04T04:20:01;15.48;;;10.08;;
20861;SDS011;10591;52.532;13.348;2022-11-04T04:22:39;15.68;;;10.28;;
20861;SDS011;10591;52.532;13.348;2022-11-04T04:25:08;17.17;;;10.43;;
20861;SDS011;10591;52.532;13.348;2022-11-04T04:27:58;14.65;;;10.13;;
20861;SDS011;10591;52.532;13.348;2022-11-04T04:30:31;12.07;;;9.93;;
20861;SDS011;10591;52.532;13.348;2022-11-04T04:33:12;16.17;;;10.35;;
20861;SDS011;10591;52.532;13.348;2022-11-04T04:35:51;12.55;;;10.10;;
20861;SDS011;10591;52.532;13.348;2022-11-04T04:38:19;17.67;;;11.57;;
20861;SDS011;10591;52.532;13.348;2022-11-04T04:41:15;12.90;;;10.33;;
20861;SDS011;10591;52.532;13.348;2022-11-04T04:47:16;16.10;;;10.37;;
20861;SDS011;10591;52.532;13.348;2022-11-04T04:49:52;16.03;;;10.97;;
20861;SDS011;10591;52.532;13.348;2022-11-04T04:52:28;16.73;;;10.40;;
20861;SDS011;10591;52.532;13.348;2022-11-04T04:55:04;15.20;;;9.93;;
20861;SDS011;10591;52.532;13.348;2022-11-04T04:57:35;12.90;;;10.48;;
20861;SDS011;10591;52.532;13.348;2022-11-04T05:00:06;13.23;;;10.37;;
20861;SDS011;10591;52.532;13.348;2022-11-04T05:02:38;12.67;;;10.20;;
20861;SDS011;10591;52.532;13.348;2022-11-04T05:05:09;15.58;;;10.75;;
20861;SDS011;10591;52.532;13.348;2022-11-04T05:07:41;13.07;;;10.43;;
20861;SDS011;10591;52.532;13.348;2022-11-04T05:10:12;16.07;;;10.28;;
20861;SDS011;10591;52.532;13.348;2022-11-04T05:12:43;14.63;;;10.33;;
20861;SDS011;10591;52.532;13.348;2022-11-04T05:15:33;14.13;;;9.50;;
20861;SDS011;10591;52.532;13.348;2022-11-04T05:18:03;14.67;;;10.57;;
20861;SDS011;10591;52.532;13.348;2022-11-04T05:20:34;15.18;;;11.10;;
20861;SDS011;10591;52.532;13.348;2022-11-04T05:23:07;13.87;;;10.30;;
20861;SDS011;10591;52.532;13.348;2022-11-04T05:28:04;14.80;;;10.87;;
20861;SDS011;10591;52.532;13.348;2022-11-04T05:30:36;12.95;;;10.45;;
20861;SDS011;10591;52.532;13.348;2022-11-04T05:33:06;20.60;;;12.00;;
20861;SDS011;10591;52.532;13.348;2022-11-04T05:35:37;16.73;;;10.67;;
20861;SDS011;10591;52.532;13.348;2022-11-04T05:38:07;13.70;;;11.33;;
20861;SDS011;10591;52.532;13.348;2022-11-04T05:40:38;14.63;;;10.78;;
20861;SDS011;10591;52.532;13.348;2022-11-04T05:43:08;14.87;;;10.50;;
20861;SDS011;10591;52.532;13.348;2022-11-04T05:45:39;15.90;;;11.03;;
20861;SDS011;10591;52.532;13.348;2022-11-04T05:48:10;16.27;;;11.37;;
20861;SDS011;10591;52.532;13.348;2022-11-04T05:50:40;14.57;;;11.00;;
20861;SDS011;10591;52.532;13.348;2022-11-04T05:53:11;19.17;;;11.53;;
20861;SDS011;10591;52.532;13.348;2022-11-04T05:55:41;17.57;;;12.20;;
20861;SDS011;10591;52.532;13.348;2022-11-04T05:58:12;16.60;;;11.73;;
20861;SDS011;10591;52.532;13.348;2022-11-04T06:00:42;15.10;;;11.40;;
20861;SDS011;10591;52.532;13.348;2022-11-04T06:03:13;15.00;;;11.37;;
20861;SDS011;10591;52.532;13.348;2022-11-04T06:05:44;14.75;;;12.50;;
20861;SDS011;10591;52.532;13.348;2022-11-04T06:08:14;14.53;;;11.27;;
20861;SDS011;10591;52.532;13.348;2022-11-04T06:10:45;15.53;;;11.53;;
20861;SDS011;10591;52.532;13.348;2022-11-04T06:13:15;14.07;;;11.33;;
20861;SDS011;10591;52.532;13.348;2022-11-04T06:15:46;17.73;;;11.47;;
20861;SDS011;10591;52.532;13.348;2022-11-04T06:18:16;15.23;;;11.33;;
20861;SDS011;10591;52.532;13.348;2022-11-04T06:20:46;13.80;;;11.87;;
20861;SDS011;10591;52.532;13.348;2022-11-04T06:23:17;15.65;;;11.90;;
20861;SDS011;10591;52.532;13.348;2022-11-04T06:25:47;17.43;;;12.37;;
20861;SDS011;10591;52.532;13.348;2022-11-04T06:28:19;15.35;;;11.73;;
20861;SDS011;10591;52.532;13.348;2022-11-04T06:30:50;18.50;;;12.00;;
20861;SDS011;10591;52.532;13.348;2022-11-04T06:33:20;13.95;;;11.60;;
20861;SDS011;10591;52.532;13.348;2022-11-04T06:35:50;18.33;;;11.90;;
20861;SDS011;10591;52.532;13.348;2022-11-04T06:38:22;16.55;;;12.28;;
20861;SDS011;10591;52.532;13.348;2022-11-04T06:40:53;17.12;;;13.43;;
20861;SDS011;10591;52.532;13.348;2022-11-04T06:43:24;15.77;;;11.77;;
20861;SDS011;10591;52.532;13.348;2022-11-04T06:45:55;15.60;;;12.80;;
20861;SDS011;10591;52.532;13.348;2022-11-04T06:48:26;19.32;;;12.37;;
20861;SDS011;10591;52.532;13.348;2022-11-04T06:51:01;19.70;;;12.80;;
20861;SDS011;10591;52.532;13.348;2022-11-04T06:53:31;16.12;;;12.82;;
20861;SDS011;10591;52.532;13.348;2022-11-04T06:56:02;15.18;;;12.55;;
20861;SDS011;10591;52.532;13.348;2022-11-04T06:58:34;18.65;;;12.33;;
20861;SDS011;10591;52.532;13.348;2022-11-04T07:01:04;15.72;;;12.70;;
20861;SDS011;10591;52.532;13.348;2022-11-04T07:03:37;18.52;;;12.65;;
20861;SDS011;10591;52.532;13.348;2022-11-04T07:06:07;17.10;;;12.53;;
20861;SDS011;10591;52.532;13.348;2022-11-04T07:08:38;20.00;;;13.55;;
20861;SDS011;10591;52.532;13.348;2022-11-04T07:11:09;17.55;;;13.43;;
20861;SDS011;10591;52.532;13.348;2022-11-04T07:13:40;18.17;;;14.20;;
20861;SDS011;10591;52.532;13.348;2022-11-04T07:16:11;17.80;;;13.88;;
20861;SDS011;10591;52.532;13.348;2022-11-04T07:18:42;16.23;;;13.62;;
20861;SDS011;10591;52.532;13.348;2022-11-04T07:21:12;18.75;;;14.93;;
20861;SDS011;10591;52.532;13.348;2022-11-04T07:23:43;21.60;;;14.73;;
20861;SDS011;10591;52.532;13.348;2022-11-04T07:26:13;19.87;;;15.57;;
20861;SDS011;10591;52.532;13.348;2022-11-04T07:28:44;23.90;;;19.77;;
20861;SDS011;10591;52.532;13.348;2022-11-04T07:31:15;21.55;;;16.52;;
20861;SDS011;10591;52.532;13.348;2022-11-04T07:33:46;20.62;;;15.72;;
20861;SDS011;10591;52.532;13.348;2022-11-04T07:36:18;24.60;;;17.57;;
20861;SDS011;10591;52.532;13.348;2022-11-04T07:38:49;22.00;;;15.95;;
20861;SDS011;10591;52.532;13.348;2022-11-04T07:41:19;19.57;;;15.88;;
20861;SDS011;10591;52.532;13.348;2022-11-04T07:43:50;26.17;;;17.27;;
20861;SDS011;10591;52.532;13.348;2022-11-04T07:46:22;22.42;;;15.98;;
20861;SDS011;10591;52.532;13.348;2022-11-04T07:48:55;21.07;;;15.93;;
20861;SDS011;10591;52.532;13.348;2022-11-04T07:51:26;23.18;;;15.55;;
20861;SDS011;10591;52.532;13.348;2022-11-04T07:53:59;24.92;;;15.65;;
20861;SDS011;10591;52.532;13.348;2022-11-04T07:56:29;24.52;;;18.35;;
20861;SDS011;10591;52.532;13.348;2022-11-04T07:59:00;26.73;;;17.63;;
20861;SDS011;10591;52.532;13.348;2022-11-04T08:01:30;23.10;;;17.75;;
20861;SDS011;10591;52.532;13.348;2022-11-04T08:04:00;23.15;;;17.02;;
20861;SDS011;10591;52.532;13.348;2022-11-04T08:06:32;24.47;;;18.57;;
20861;SDS011;10591;52.532;13.348;2022-11-04T08:09:02;21.65;;;17.00;;
20861;SDS011;10591;52.532;13.348;2022-11-04T08:11:33;21.12;;;15.88;;
20861;SDS011;10591;52.532;13.348;2022-11-04T08:14:03;20.70;;;15.00;;
20861;SDS011;10591;52.532;13.348;2022-11-04T08:16:34;19.87;;;16.12;;
20861;SDS011;10591;52.532;13.348;2022-11-04T08:19:04;21.07;;;16.07;;
20861;SDS011;10591;52.532;13.348;2022-11-04T08:21:35;24.27;;;15.88;;
20861;SDS011;10591;52.532;13.348;2022-11-04T08:24:05;20.88;;;15.00;;
20861;SDS011;10591;52.532;13.348;2022-11-04T08:26:36;21.17;;;15.40;;
20861;SDS011;10591;52.532;13.348;2022-11-04T08:29:07;17.35;;;14.75;;
20861;SDS011;10591;52.532;13.348;2022-11-04T08:31:37;16.60;;;13.60;;
20861;SDS011;10591;52.532;13.348;2022-11-04T08:34:09;21.97;;;14.20;;
20861;SDS011;10591;52.532;13.348;2022-11-04T08:36:40;18.65;;;13.70;;
20861;SDS011;10591;52.532;13.348;2022-11-04T08:39:10;17.92;;;13.43;;
20861;SDS011;10591;52.532;13.348;2022-11-04T08:41:41;16.90;;;13.00;;
20861;SDS011;10591;52.532;13.348;2022-11-04T08:44:13;16.05;;;12.88;;
20861;SDS011;10591;52.532;13.348;2022-11-04T08:46:44;16.75;;;12.78;;
20861;SDS011;10591;52.532;13.348;2022-11-04T08:49:15;17.17;;;12.45;;
20861;SDS011;10591;52.532;13.348;2022-11-04T08:51:47;14.87;;;11.73;;
20861;SDS011;10591;52.532;13.348;2022-11-04T08:54:19;16.52;;;12.50;;
20861;SDS011;10591;52.532;13.348;2022-11-04T08:56:51;20.02;;;15.93;;
20861;SDS011;10591;52.532;13.348;2022-11-04T08:59:22;20.17;;;11.60;;
20861;SDS011;10591;52.532;13.348;2022-11-04T09:01:52;17.15;;;11.33;;
20861;SDS011;10591;52.532;13.348;2022-11-04T09:04:23;15.32;;;11.85;;
20861;SDS011;10591;52.532;13.348;2022-11-04T09:06:54;14.53;;;11.43;;
20861;SDS011;10591;52.532;13.348;2022-11-04T09:09:25;14.85;;;11.03;;
20861;SDS011;10591;52.532;13.348;2022-11-04T09:11:55;14.43;;;11.45;;
20861;SDS011;10591;52.532;13.348;2022-11-04T09:14:25;14.05;;;11.08;;
20861;SDS011;10591;52.532;13.348;2022-11-04T09:16:56;14.20;;;11.00;;
20861;SDS011;10591;52.532;13.348;2022-11-04T09:19:28;14.23;;;11.45;;
20861;SDS011;10591;52.532;13.348;2022-11-04T09:22:00;14.70;;;10.83;;
20861;SDS011;10591;52.532;13.348;2022-11-04T09:24:30;16.27;;;11.75;;
20861;SDS011;10591;52.532;13.348;2022-11-04T09:27:01;14.65;;;11.50;;
20861;SDS011;10591;52.532;13.348;2022-11-04T09:29:33;15.18;;;11.70;;
20861;SDS011;10591;52.532;13.348;2022-11-04T09:32:04;15.23;;;10.90;;
20861;SDS011;10591;52.532;13.348;2022-11-04T09:34:35;16.65;;;11.30;;
20861;SDS011;10591;52.532;13.348;2022-11-04T09:37:06;16.35;;;11.22;;
20861;SDS011;10591;52.532;13.348;2022-11-04T09:39:36;17.90;;;12.07;;
20861;SDS011;10591;52.532;13.348;2022-11-04T09:42:12;19.82;;;12.23;;
20861;SDS011;10591;52.532;13.348;2022-11-04T09:45:00;18.15;;;11.60;;
20861;SDS011;10591;52.532;13.348;2022-11-04T09:47:35;14.80;;;11.22;;
20861;SDS011;10591;52.532;13.348;2022-11-04T09:50:09;15.85;;;10.88;;
20861;SDS011;10591;52.532;13.348;2022-11-04T09:52:42;11.97;;;10.40;;
20861;SDS011;10591;52.532;13.348;2022-11-04T09:58:00;13.95;;;9.80;;
20861;SDS011;10591;52.532;13.348;2022-11-04T10:00:31;11.83;;;9.68;;
20861;SDS011;10591;52.532;13.348;2022-11-04T10:03:18;13.70;;;9.50;;
20861;SDS011;10591;52.532;13.348;2022-11-04T10:05:54;13.25;;;10.32;;
20861;SDS011;10591;52.532;13.348;2022-11-04T10:08:30;11.00;;;9.35;;
20861;SDS011;10591;52.532;13.348;2022-11-04T10:11:12;12.58;;;10.30;;
20861;SDS011;10591;52.532;13.348;2022-11-04T10:16:50;12.85;;;10.00;;
20861;SDS011;10591;52.532;13.348;2022-11-04T10:20:01;10.45;;;9.28;;
20861;SDS011;10591;52.532;13.348;2022-11-04T10:22:56;11.83;;;10.08;;
20861;SDS011;10591;52.532;13.348;2022-11-04T10:25:34;12.55;;;9.58;;
20861;SDS011;10591;52.532;13.348;2022-11-04T10:28:07;13.83;;;10.88;;
20861;SDS011;10591;52.532;13.348;2022-11-04T10:30:38;13.78;;;10.60;;
20861;SDS011;10591;52.532;13.348;2022-11-04T10:36:00;11.75;;;10.05;;
20861;SDS011;10591;52.532;13.348;2022-11-04T10:52:27;13.75;;;10.70;;
20861;SDS011;10591;52.532;13.348;2022-11-04T10:54:59;12.25;;;10.55;;
20861;SDS011;10591;52.532;13.348;2022-11-04T10:57:30;13.10;;;11.22;;
20861;SDS011;10591;52.532;13.348;2022-11-04T11:00:02;12.18;;;10.68;;
20861;SDS011;10591;52.532;13.348;2022-11-04T11:07:55;11.95;;;10.53;;
20861;SDS011;10591;52.532;13.348;2022-11-04T11:10:24;14.95;;;11.83;;
20861;SDS011;10591;52.532;13.348;2022-11-04T11:13:05;13.85;;;11.20;;
20861;SDS011;10591;52.532;13.348;2022-11-04T11:15:34;13.50;;;11.33;;
20861;SDS011;10591;52.532;13.348;2022-11-04T11:20:47;18.25;;;12.43;;
20861;SDS011;10591;52.532;13.348;2022-11-04T11:23:32;16.25;;;12.55;;
20861;SDS011;10591;52.532;13.348;2022-11-04T11:26:05;14.45;;;11.88;;
20861;SDS011;10591;52.532;13.348;2022-11-04T11:28:39;15.25;;;12.10;;
20861;SDS011;10591;52.532;13.348;2022-11-04T11:31:11;14.05;;;11.75;;
20861;SDS011;10591;52.532;13.348;2022-11-04T11:33:45;13.45;;;11.03;;
20861;SDS011;10591;52.532;13.348;2022-11-04T11:36:27;15.50;;;12.60;;
20861;SDS011;10591;52.532;13.348;2022-11-04T11:42:00;16.30;;;12.80;;
20861;SDS011;10591;52.532;13.348;2022-11-04T11:44:38;16.95;;;13.38;;
20861;SDS011;10591;52.532;13.348;2022-11-04T11:52:37;13.15;;;11.83;;
20861;SDS011;10591;52.532;13.348;2022-11-04T11:55:20;13.60;;;11.53;;
20861;SDS011;10591;52.532;13.348;2022-11-04T12:00:59;14.47;;;11.45;;
20861;SDS011;10591;52.532;13.348;2022-11-04T12:03:24;14.47;;;11.95;;
20861;SDS011;10591;52.532;13.348;2022-11-04T12:06:02;11.88;;;10.68;;
20861;SDS011;10591;52.532;13.348;2022-11-04T12:22:57;14.33;;;12.13;;
20861;SDS011;10591;52.532;13.348;2022-11-04T12:25:34;12.35;;;11.03;;
20861;SDS011;10591;52.532;13.348;2022-11-04T12:28:13;12.10;;;10.82;;
20861;SDS011;10591;52.532;13.348;2022-11-04T12:36:23;12.03;;;10.80;;
20861;SDS011;10591;52.532;13.348;2022-11-04T12:39:08;12.80;;;11.35;;
20861;SDS011;10591;52.532;13.348;2022-11-04T12:41:49;12.85;;;11.00;;
20861;SDS011;10591;52.532;13.348;2022-11-04T12:44:36;12.50;;;10.65;;
20861;SDS011;10591;52.532;13.348;2022-11-04T12:47:31;12.85;;;11.00;;
20861;SDS011;10591;52.532;13.348;2022-11-04T12:50:22;11.78;;;10.58;;
20861;SDS011;10591;52.532;13.348;2022-11-04T12:56:13;12.45;;;10.90;;
20861;SDS011;10591;52.532;13.348;2022-11-04T13:01:58;12.82;;;11.53;;
20861;SDS011;10591;52.532;13.348;2022-11-04T13:04:34;12.10;;;10.90;;
20861;SDS011;10591;52.532;13.348;2022-11-04T13:07:11;13.78;;;11.78;;
20861;SDS011;10591;52.532;13.348;2022-11-04T13:09:47;12.47;;;11.18;;
20861;SDS011;10591;52.532;13.348;2022-11-04T13:12:34;12.75;;;11.45;;
20861;SDS011;10591;52.532;13.348;2022-11-04T13:15:04;12.88;;;11.10;;
20861;SDS011;10591;52.532;13.348;2022-11-04T13:17:36;13.30;;;11.05;;
20861;SDS011;10591;52.532;13.348;2022-11-04T13:22:46;13.88;;;10.30;;
20861;SDS011;10591;52.532;13.348;2022-11-04T13:25:23;15.85;;;12.50;;
20861;SDS011;10591;52.532;13.348;2022-11-04T13:27:54;13.45;;;11.53;;
20861;SDS011;10591;52.532;13.348;2022-11-04T13:33:22;13.90;;;11.35;;
20861;SDS011;10591;52.532;13.348;2022-11-04T13:39:06;12.88;;;11.53;;
20861;SDS011;10591;52.532;13.348;2022-11-04T13:44:16;14.10;;;12.18;;
20861;SDS011;10591;52.532;13.348;2022-11-04T13:46:48;14.90;;;13.15;;
20861;SDS011;10591;52.532;13.348;2022-11-04T13:49:23;13.60;;;11.78;;
20861;SDS011;10591;52.532;13.348;2022-11-04T13:52:03;13.85;;;12.28;;
20861;SDS011;10591;52.532;13.348;2022-11-04T13:54:38;13.90;;;12.10;;
20861;SDS011;10591;52.532;13.348;2022-11-04T13:57:26;13.75;;;11.28;;
20861;SDS011;10591;52.532;13.348;2022-11-04T14:02:44;14.33;;;11.65;;
20861;SDS011;10591;52.532;13.348;2022-11-04T14:16:03;13.45;;;12.05;;
20861;SDS011;10591;52.532;13.348;2022-11-04T14:18:54;13.40;;;11.83;;
20861;SDS011;10591;52.532;13.348;2022-11-04T14:21:25;15.35;;;13.30;;
20861;SDS011;10591;52.532;13.348;2022-11-04T14:23:57;14.93;;;11.93;;
20861;SDS011;10591;52.532;13.348;2022-11-04T14:26:39;14.23;;;12.30;;
20861;SDS011;10591;52.532;13.348;2022-11-04T14:29:15;13.25;;;11.90;;
20861;SDS011;10591;52.532;13.348;2022-11-04T14:31:53;14.25;;;12.33;;
20861;SDS011;10591;52.532;13.348;2022-11-04T14:34:27;12.50;;;11.25;;
20861;SDS011;10591;52.532;13.348;2022-11-04T14:37:26;13.68;;;11.25;;
20861;SDS011;10591;52.532;13.348;2022-11-04T14:39:54;12.78;;;11.48;;
20861;SDS011;10591;52.532;13.348;2022-11-04T14:45:37;11.95;;;10.70;;
20861;SDS011;10591;52.532;13.348;2022-11-04T14:47:59;13.60;;;10.90;;
20861;SDS011;10591;52.532;13.348;2022-11-04T14:50:45;12.15;;;10.80;;
20861;SDS011;10591;52.532;13.348;2022-11-04T14:53:22;12.30;;;10.85;;
20861;SDS011;10591;52.532;13.348;2022-11-04T14:59:03;11.97;;;10.72;;
20861;SDS011;10591;52.532;13.348;2022-11-04T15:01:38;12.30;;;10.70;;
20861;SDS011;10591;52.532;13.348;2022-11-04T15:04:13;16.07;;;14.05;;
20861;SDS011;10591;52.532;13.348;2022-11-04T15:06:55;14.70;;;12.35;;
20861;SDS011;10591;52.532;13.348;2022-11-04T15:09:33;12.85;;;11.08;;
20861;SDS011;10591;52.532;13.348;2022-11-04T15:14:57;12.95;;;11.60;;
20861;SDS011;10591;52.532;13.348;2022-11-04T15:17:29;13.53;;;11.43;;
20861;SDS011;10591;52.532;13.348;2022-11-04T15:20:01;13.60;;;11.80;;
20861;SDS011;10591;52.532;13.348;2022-11-04T15:22:32;12.63;;;11.33;;
20861;SDS011;10591;52.532;13.348;2022-11-04T15:25:04;12.68;;;11.38;;
20861;SDS011;10591;52.532;13.348;2022-11-04T15:27:36;13.18;;;11.03;;
20861;SDS011;10591;52.532;13.348;2022-11-04T15:30:15;12.40;;;10.85;;
20861;SDS011;10591;52.532;13.348;2022-11-04T15:32:59;12.63;;;10.95;;
20861;SDS011;10591;52.532;13.348;2022-11-04T15:35:31;13.45;;;10.98;;
20861;SDS011;10591;52.532;13.348;2022-11-04T15:38:02;12.35;;;11.05;;
20861;SDS011;10591;52.532;13.348;2022-11-04T15:40:33;11.75;;;10.50;;
20861;SDS011;10591;52.532;13.348;2022-11-04T15:43:03;12.35;;;10.55;;
20861;SDS011;10591;52.532;13.348;2022-11-04T15:45:36;11.75;;;10.55;;
20861;SDS011;10591;52.532;13.348;2022-11-04T15:53:49;13.53;;;10.85;;
20861;SDS011;10591;52.532;13.348;2022-11-04T15:56:27;12.40;;;11.20;;
20861;SDS011;10591;52.532;13.348;2022-11-04T15:58:56;12.68;;;11.43;;
20861;SDS011;10591;52.532;13.348;2022-11-04T16:01:28;12.53;;;11.22;;
20861;SDS011;10591;52.532;13.348;2022-11-04T16:04:00;12.93;;;11.45;;
20861;SDS011;10591;52.532;13.348;2022-11-04T16:06:40;12.00;;;10.80;;
20861;SDS011;10591;52.532;13.348;2022-11-04T16:12:03;13.05;;;11.28;;
20861;SDS011;10591;52.532;13.348;2022-11-04T16:14:38;14.28;;;11.10;;
20861;SDS011;10591;52.532;13.348;2022-11-04T16:17:17;14.60;;;11.48;;
20861;SDS011;10591;52.532;13.348;2022-11-04T16:19:50;11.85;;;10.65;;
20861;SDS011;10591;52.532;13.348;2022-11-04T16:22:23;12.35;;;11.08;;
20861;SDS011;10591;52.532;13.348;2022-11-04T16:25:03;13.80;;;11.50;;
20861;SDS011;10591;52.532;13.348;2022-11-04T16:27:37;14.73;;;13.13;;
20861;SDS011;10591;52.532;13.348;2022-11-04T16:30:16;12.33;;;11.08;;
20861;SDS011;10591;52.532;13.348;2022-11-04T16:32:52;12.47;;;11.15;;
20861;SDS011;10591;52.532;13.348;2022-11-04T16:35:26;12.23;;;10.93;;
20861;SDS011;10591;52.532;13.348;2022-11-04T16:37:59;12.40;;;10.95;;
20861;SDS011;10591;52.532;13.348;2022-11-04T16:40:29;12.45;;;11.25;;
20861;SDS011;10591;52.532;13.348;2022-11-04T16:43:01;12.18;;;10.90;;
20861;SDS011;10591;52.532;13.348;2022-11-04T16:45:32;12.60;;;11.30;;
20861;SDS011;10591;52.532;13.348;2022-11-04T16:48:04;12.07;;;10.82;;
20861;SDS011;10591;52.532;13.348;2022-11-04T16:50:35;14.03;;;11.43;;
20861;SDS011;10591;52.532;13.348;2022-11-04T16:53:06;12.73;;;11.22;;
20861;SDS011;10591;52.532;13.348;2022-11-04T16:55:40;14.15;;;11.70;;
20861;SDS011;10591;52.532;13.348;2022-11-04T16:58:17;11.85;;;10.70;;
20861;SDS011;10591;52.532;13.348;2022-11-04T17:00:48;11.30;;;10.15;;
20861;SDS011;10591;52.532;13.348;2022-11-04T17:03:19;12.47;;;10.65;;